sensor_id;sensor_type;location;lat;lon;timestamp;temperature;humidity
16479;DHT22;8350;52.316;10.530;2022-10-16T00:02:12;14.70;99.90
16479;DHT22;8350;52.316;10.530;2022-10-16T00:04:40;14.70;99.90
16479;DHT22;8350;52.316;10.530;2022-10-16T00:07:07;14.70;99.90
16479;DHT22;8350;52.316;10.530;2022-10-16T00:09:34;14.60;99.90
16479;DHT22;8350;52.316;10.530;2022-10-16T00:12:02;14.60;99.90
16479;DHT22;8350;52.316;10.530;2022-10-16T00:14:29;14.60;99.90
16479;DHT22;8350;52.316;10.530;2022-10-16T00:16:56;14.50;99.90
16479;DHT22;8350;52.316;10.530;2022-10-16T00:19:23;14.50;99.90
16479;DHT22;8350;52.316;10.530;2022-10-16T00:21:52;14.50;99.90
16479;DHT22;8350;52.316;10.530;2022-10-16T00:24:19;14.40;99.90
16479;DHT22;8350;52.316;10.530;2022-10-16T00:26:49;14.30;99.90
16479;DHT22;8350;52.316;10.530;2022-10-16T00:29:16;14.30;99.90
16479;DHT22;8350;52.316;10.530;2022-10-16T00:31:43;14.30;99.90
16479;DHT22;8350;52.316;10.530;2022-10-16T00:34:11;14.20;99.90
16479;DHT22;8350;52.316;10.530;2022-10-16T00:36:37;14.20;99.90
16479;DHT22;8350;52.316;10.530;2022-10-16T00:39:06;14.20;99.90
16479;DHT22;8350;52.316;10.530;2022-10-16T00:41:33;14.20;99.90
16479;DHT22;8350;52.316;10.530;2022-10-16T00:44:02;14.10;99.90
16479;DHT22;8350;52.316;10.530;2022-10-16T00:46:33;14.10;99.90
16479;DHT22;8350;52.316;10.530;2022-10-16T00:49:04;14.00;99.90
16479;DHT22;8350;52.316;10.530;2022-10-16T00:51:36;14.00;99.90
16479;DHT22;8350;52.316;10.530;2022-10-16T00:54:06;14.00;99.90
16479;DHT22;8350;52.316;10.530;2022-10-16T00:56:35;14.00;99.90
16479;DHT22;8350;52.316;10.530;2022-10-16T00:59:03;14.00;99.90
16479;DHT22;8350;52.316;10.530;2022-10-16T01:01:33;14.00;99.90
16479;DHT22;8350;52.316;10.530;2022-10-16T01:04:00;14.00;99.90
16479;DHT22;8350;52.316;10.530;2022-10-16T01:06:32;14.00;99.90
16479;DHT22;8350;52.316;10.530;2022-10-16T01:09:15;14.00;99.90
16479;DHT22;8350;52.316;10.530;2022-10-16T01:11:54;14.00;99.90
16479;DHT22;8350;52.316;10.530;2022-10-16T01:14:32;14.00;99.90
16479;DHT22;8350;52.316;10.530;2022-10-16T01:17:08;14.00;99.90
16479;DHT22;8350;52.316;10.530;2022-10-16T01:19:50;14.00;99.90
16479;DHT22;8350;52.316;10.530;2022-10-16T01:22:19;14.10;99.90
16479;DHT22;8350;52.316;10.530;2022-10-16T01:24:50;14.10;99.90
16479;DHT22;8350;52.316;10.530;2022-10-16T01:27:23;14.10;99.90
16479;DHT22;8350;52.316;10.530;2022-10-16T01:29:54;14.00;99.90
16479;DHT22;8350;52.316;10.530;2022-10-16T01:32:31;14.00;99.90
16479;DHT22;8350;52.316;10.530;2022-10-16T01:35:02;14.00;99.90
16479;DHT22;8350;52.316;10.530;2022-10-16T01:37:35;14.10;99.90
16479;DHT22;8350;52.316;10.530;2022-10-16T01:40:06;14.10;99.90
16479;DHT22;8350;52.316;10.530;2022-10-16T01:42:39;14.00;99.90
16479;DHT22;8350;52.316;10.530;2022-10-16T01:45:08;13.90;99.90
16479;DHT22;8350;52.316;10.530;2022-10-16T01:47:39;14.00;99.90
16479;DHT22;8350;52.316;10.530;2022-10-16T01:50:11;14.00;99.90
16479;DHT22;8350;52.316;10.530;2022-10-16T01:52:42;14.00;99.90
16479;DHT22;8350;52.316;10.530;2022-10-16T01:55:13;14.00;99.90
16479;DHT22;8350;52.316;10.530;2022-10-16T01:57:45;13.90;99.90
16479;DHT22;8350;52.316;10.530;2022-10-16T02:00:15;13.90;99.90
16479;DHT22;8350;52.316;10.530;2022-10-16T02:02:46;13.90;99.90
16479;DHT22;8350;52.316;10.530;2022-10-16T02:05:20;13.90;99.90
16479;DHT22;8350;52.316;10.530;2022-10-16T02:07:48;13.90;99.90
16479;DHT22;8350;52.316;10.530;2022-10-16T02:10:15;13.90;99.90
16479;DHT22;8350;52.316;10.530;2022-10-16T02:12:46;13.90;99.90
16479;DHT22;8350;52.316;10.530;2022-10-16T02:15:16;13.90;99.90
16479;DHT22;8350;52.316;10.530;2022-10-16T02:17:43;13.90;99.90
16479;DHT22;8350;52.316;10.530;2022-10-16T02:20:10;13.90;99.90
16479;DHT22;8350;52.316;10.530;2022-10-16T02:22:40;13.90;99.90
16479;DHT22;8350;52.316;10.530;2022-10-16T02:25:11;13.90;99.90
16479;DHT22;8350;52.316;10.530;2022-10-16T02:27:41;13.90;99.90
16479;DHT22;8350;52.316;10.530;2022-10-16T02:30:14;13.90;99.90
16479;DHT22;8350;52.316;10.530;2022-10-16T02:32:44;13.90;99.90
16479;DHT22;8350;52.316;10.530;2022-10-16T02:35:12;14.00;99.90
16479;DHT22;8350;52.316;10.530;2022-10-16T02:37:40;14.00;99.90
16479;DHT22;8350;52.316;10.530;2022-10-16T02:40:09;13.90;99.90
16479;DHT22;8350;52.316;10.530;2022-10-16T02:42:39;14.00;99.90
16479;DHT22;8350;52.316;10.530;2022-10-16T02:45:08;14.00;99.90
16479;DHT22;8350;52.316;10.530;2022-10-16T02:47:37;14.00;99.90
16479;DHT22;8350;52.316;10.530;2022-10-16T02:50:05;14.00;99.90
16479;DHT22;8350;52.316;10.530;2022-10-16T02:52:32;14.00;99.90
16479;DHT22;8350;52.316;10.530;2022-10-16T02:54:59;14.00;99.90
16479;DHT22;8350;52.316;10.530;2022-10-16T02:57:32;14.00;99.90
16479;DHT22;8350;52.316;10.530;2022-10-16T03:00:00;14.00;99.90
16479;DHT22;8350;52.316;10.530;2022-10-16T03:02:27;14.00;99.90
16479;DHT22;8350;52.316;10.530;2022-10-16T03:04:56;14.00;99.90
16479;DHT22;8350;52.316;10.530;2022-10-16T03:07:23;13.90;99.90
16479;DHT22;8350;52.316;10.530;2022-10-16T03:09:50;13.90;99.90
16479;DHT22;8350;52.316;10.530;2022-10-16T03:12:17;13.90;99.90
16479;DHT22;8350;52.316;10.530;2022-10-16T03:14:44;13.90;99.90
16479;DHT22;8350;52.316;10.530;2022-10-16T03:17:11;13.90;99.90
16479;DHT22;8350;52.316;10.530;2022-10-16T03:19:39;13.90;99.90
16479;DHT22;8350;52.316;10.530;2022-10-16T03:22:07;13.90;99.90
16479;DHT22;8350;52.316;10.530;2022-10-16T03:24:34;13.90;99.90
16479;DHT22;8350;52.316;10.530;2022-10-16T03:27:01;13.80;99.90
16479;DHT22;8350;52.316;10.530;2022-10-16T03:29:28;13.80;99.90
16479;DHT22;8350;52.316;10.530;2022-10-16T03:31:56;13.80;99.90
16479;DHT22;8350;52.316;10.530;2022-10-16T03:34:23;13.70;99.90
16479;DHT22;8350;52.316;10.530;2022-10-16T03:36:50;13.70;99.90
16479;DHT22;8350;52.316;10.530;2022-10-16T03:39:18;13.70;99.90
16479;DHT22;8350;52.316;10.530;2022-10-16T03:41:46;13.70;99.90
16479;DHT22;8350;52.316;10.530;2022-10-16T03:44:13;13.70;99.90
16479;DHT22;8350;52.316;10.530;2022-10-16T03:46:40;13.60;99.90
16479;DHT22;8350;52.316;10.530;2022-10-16T03:49:07;13.60;99.90
16479;DHT22;8350;52.316;10.530;2022-10-16T03:51:34;13.60;99.90
16479;DHT22;8350;52.316;10.530;2022-10-16T03:54:01;13.50;99.90
16479;DHT22;8350;52.316;10.530;2022-10-16T03:56:30;13.50;99.90
16479;DHT22;8350;52.316;10.530;2022-10-16T03:58:57;13.40;99.90
16479;DHT22;8350;52.316;10.530;2022-10-16T04:01:24;13.40;99.90
16479;DHT22;8350;52.316;10.530;2022-10-16T04:03:51;13.30;99.90
16479;DHT22;8350;52.316;10.530;2022-10-16T04:06:18;13.30;99.90
16479;DHT22;8350;52.316;10.530;2022-10-16T04:08:45;13.20;99.90
16479;DHT22;8350;52.316;10.530;2022-10-16T04:11:12;13.20;99.90
16479;DHT22;8350;52.316;10.530;2022-10-16T04:13:40;13.20;99.90
16479;DHT22;8350;52.316;10.530;2022-10-16T04:16:09;13.10;99.90
16479;DHT22;8350;52.316;10.530;2022-10-16T04:18:36;12.90;99.90
16479;DHT22;8350;52.316;10.530;2022-10-16T04:21:03;12.90;99.90
16479;DHT22;8350;52.316;10.530;2022-10-16T04:23:31;12.90;99.90
16479;DHT22;8350;52.316;10.530;2022-10-16T04:25:58;12.80;99.90
16479;DHT22;8350;52.316;10.530;2022-10-16T04:28:26;12.70;99.90
16479;DHT22;8350;52.316;10.530;2022-10-16T04:30:55;12.60;99.90
16479;DHT22;8350;52.316;10.530;2022-10-16T04:33:22;12.50;99.90
16479;DHT22;8350;52.316;10.530;2022-10-16T04:35:56;12.50;99.90
16479;DHT22;8350;52.316;10.530;2022-10-16T04:38:23;12.30;99.90
16479;DHT22;8350;52.316;10.530;2022-10-16T04:40:50;12.20;99.90
16479;DHT22;8350;52.316;10.530;2022-10-16T04:43:17;12.10;99.90
16479;DHT22;8350;52.316;10.530;2022-10-16T04:45:45;12.00;99.90
16479;DHT22;8350;52.316;10.530;2022-10-16T04:48:13;12.00;99.90
16479;DHT22;8350;52.316;10.530;2022-10-16T04:50:41;11.90;99.90
16479;DHT22;8350;52.316;10.530;2022-10-16T04:53:08;11.90;99.90
16479;DHT22;8350;52.316;10.530;2022-10-16T04:55:35;11.90;99.90
16479;DHT22;8350;52.316;10.530;2022-10-16T04:58:02;11.90;99.90
16479;DHT22;8350;52.316;10.530;2022-10-16T05:00:30;11.90;99.90
16479;DHT22;8350;52.316;10.530;2022-10-16T05:02:57;11.90;99.90
16479;DHT22;8350;52.316;10.530;2022-10-16T05:05:27;11.90;99.90
16479;DHT22;8350;52.316;10.530;2022-10-16T05:07:54;12.00;99.90
16479;DHT22;8350;52.316;10.530;2022-10-16T05:10:21;12.10;99.90
16479;DHT22;8350;52.316;10.530;2022-10-16T05:12:48;12.10;99.90
16479;DHT22;8350;52.316;10.530;2022-10-16T05:15:16;12.10;99.90
16479;DHT22;8350;52.316;10.530;2022-10-16T05:17:44;12.10;99.90
16479;DHT22;8350;52.316;10.530;2022-10-16T05:20:11;12.20;99.90
16479;DHT22;8350;52.316;10.530;2022-10-16T05:22:46;12.20;99.90
16479;DHT22;8350;52.316;10.530;2022-10-16T05:25:13;12.10;99.90
16479;DHT22;8350;52.316;10.530;2022-10-16T05:27:40;12.20;99.90
16479;DHT22;8350;52.316;10.530;2022-10-16T05:30:07;12.20;99.90
16479;DHT22;8350;52.316;10.530;2022-10-16T05:32:35;12.20;99.90
16479;DHT22;8350;52.316;10.530;2022-10-16T05:35:02;12.20;99.90
16479;DHT22;8350;52.316;10.530;2022-10-16T05:37:29;12.30;99.90
16479;DHT22;8350;52.316;10.530;2022-10-16T05:39:58;12.30;99.90
16479;DHT22;8350;52.316;10.530;2022-10-16T05:42:25;12.30;99.90
16479;DHT22;8350;52.316;10.530;2022-10-16T05:44:52;12.40;99.90
16479;DHT22;8350;52.316;10.530;2022-10-16T05:47:19;12.40;99.90
16479;DHT22;8350;52.316;10.530;2022-10-16T05:49:46;12.40;99.90
16479;DHT22;8350;52.316;10.530;2022-10-16T05:52:13;12.40;99.90
16479;DHT22;8350;52.316;10.530;2022-10-16T05:54:40;12.40;99.90
16479;DHT22;8350;52.316;10.530;2022-10-16T05:57:09;12.40;99.90
16479;DHT22;8350;52.316;10.530;2022-10-16T05:59:35;12.40;99.90
16479;DHT22;8350;52.316;10.530;2022-10-16T06:02:03;12.40;99.90
16479;DHT22;8350;52.316;10.530;2022-10-16T06:04:31;12.40;99.90
16479;DHT22;8350;52.316;10.530;2022-10-16T06:06:58;12.40;99.90
16479;DHT22;8350;52.316;10.530;2022-10-16T06:09:27;12.40;99.90
16479;DHT22;8350;52.316;10.530;2022-10-16T06:11:54;12.40;99.90
16479;DHT22;8350;52.316;10.530;2022-10-16T06:14:22;12.40;99.90
16479;DHT22;8350;52.316;10.530;2022-10-16T06:16:49;12.40;99.90
16479;DHT22;8350;52.316;10.530;2022-10-16T06:19:16;12.40;99.90
16479;DHT22;8350;52.316;10.530;2022-10-16T06:21:44;12.40;99.90
16479;DHT22;8350;52.316;10.530;2022-10-16T06:24:11;12.50;99.90
16479;DHT22;8350;52.316;10.530;2022-10-16T06:26:38;12.50;99.90
16479;DHT22;8350;52.316;10.530;2022-10-16T06:29:05;12.60;99.90
16479;DHT22;8350;52.316;10.530;2022-10-16T06:31:33;12.70;99.90
16479;DHT22;8350;52.316;10.530;2022-10-16T06:34:01;12.80;99.90
16479;DHT22;8350;52.316;10.530;2022-10-16T06:36:30;12.90;99.90
16479;DHT22;8350;52.316;10.530;2022-10-16T06:38:57;13.20;99.90
16479;DHT22;8350;52.316;10.530;2022-10-16T06:41:24;13.90;99.90
16479;DHT22;8350;52.316;10.530;2022-10-16T06:43:51;14.40;99.90
16479;DHT22;8350;52.316;10.530;2022-10-16T06:46:21;14.40;99.90
16479;DHT22;8350;52.316;10.530;2022-10-16T06:48:50;14.40;99.90
16479;DHT22;8350;52.316;10.530;2022-10-16T06:51:19;14.40;99.90
16479;DHT22;8350;52.316;10.530;2022-10-16T06:53:48;14.50;99.90
16479;DHT22;8350;52.316;10.530;2022-10-16T06:56:17;14.60;99.90
16479;DHT22;8350;52.316;10.530;2022-10-16T06:58:45;14.80;99.90
16479;DHT22;8350;52.316;10.530;2022-10-16T07:01:13;14.90;99.90
16479;DHT22;8350;52.316;10.530;2022-10-16T07:03:44;15.00;99.90
16479;DHT22;8350;52.316;10.530;2022-10-16T07:06:14;15.10;99.90
16479;DHT22;8350;52.316;10.530;2022-10-16T07:08:43;15.00;99.90
16479;DHT22;8350;52.316;10.530;2022-10-16T07:11:13;15.00;99.90
16479;DHT22;8350;52.316;10.530;2022-10-16T07:13:41;15.10;99.90
16479;DHT22;8350;52.316;10.530;2022-10-16T07:16:11;15.10;99.90
16479;DHT22;8350;52.316;10.530;2022-10-16T07:18:38;15.30;99.90
16479;DHT22;8350;52.316;10.530;2022-10-16T07:21:06;15.40;99.90
16479;DHT22;8350;52.316;10.530;2022-10-16T07:23:36;15.50;99.90
16479;DHT22;8350;52.316;10.530;2022-10-16T07:26:03;15.60;99.90
16479;DHT22;8350;52.316;10.530;2022-10-16T07:28:31;15.70;99.90
16479;DHT22;8350;52.316;10.530;2022-10-16T07:31:01;15.80;99.90
16479;DHT22;8350;52.316;10.530;2022-10-16T07:33:28;15.80;99.90
16479;DHT22;8350;52.316;10.530;2022-10-16T07:35:55;15.90;99.90
16479;DHT22;8350;52.316;10.530;2022-10-16T07:38:23;16.00;99.90
16479;DHT22;8350;52.316;10.530;2022-10-16T07:40:57;16.30;99.90
16479;DHT22;8350;52.316;10.530;2022-10-16T07:43:28;16.30;99.90
16479;DHT22;8350;52.316;10.530;2022-10-16T07:45:55;16.50;99.90
16479;DHT22;8350;52.316;10.530;2022-10-16T07:48:23;16.40;99.90
16479;DHT22;8350;52.316;10.530;2022-10-16T07:50:50;16.40;99.90
16479;DHT22;8350;52.316;10.530;2022-10-16T07:53:19;16.60;99.90
16479;DHT22;8350;52.316;10.530;2022-10-16T07:55:49;16.70;99.90
16479;DHT22;8350;52.316;10.530;2022-10-16T07:58:17;16.90;99.90
16479;DHT22;8350;52.316;10.530;2022-10-16T08:00:44;17.10;99.90
16479;DHT22;8350;52.316;10.530;2022-10-16T08:03:11;17.20;99.90
16479;DHT22;8350;52.316;10.530;2022-10-16T08:05:39;17.30;99.90
16479;DHT22;8350;52.316;10.530;2022-10-16T08:08:05;17.40;99.90
16479;DHT22;8350;52.316;10.530;2022-10-16T08:10:33;17.60;99.90
16479;DHT22;8350;52.316;10.530;2022-10-16T08:12:59;17.50;99.90
16479;DHT22;8350;52.316;10.530;2022-10-16T08:15:28;17.50;99.90
16479;DHT22;8350;52.316;10.530;2022-10-16T08:17:57;17.60;99.90
16479;DHT22;8350;52.316;10.530;2022-10-16T08:20:24;17.70;99.90
16479;DHT22;8350;52.316;10.530;2022-10-16T08:22:51;17.80;99.90
16479;DHT22;8350;52.316;10.530;2022-10-16T08:25:19;18.00;99.90
16479;DHT22;8350;52.316;10.530;2022-10-16T08:27:46;17.90;99.90
16479;DHT22;8350;52.316;10.530;2022-10-16T08:30:13;17.90;99.90
16479;DHT22;8350;52.316;10.530;2022-10-16T08:32:42;17.90;99.90
16479;DHT22;8350;52.316;10.530;2022-10-16T08:35:09;17.90;99.90
16479;DHT22;8350;52.316;10.530;2022-10-16T08:37:36;17.90;99.90
16479;DHT22;8350;52.316;10.530;2022-10-16T08:40:05;18.00;99.90
16479;DHT22;8350;52.316;10.530;2022-10-16T08:42:45;17.90;99.90
16479;DHT22;8350;52.316;10.530;2022-10-16T08:45:32;17.80;99.90
16479;DHT22;8350;52.316;10.530;2022-10-16T08:48:10;17.90;99.90
16479;DHT22;8350;52.316;10.530;2022-10-16T08:50:39;17.80;99.90
16479;DHT22;8350;52.316;10.530;2022-10-16T08:53:09;17.60;99.90
16479;DHT22;8350;52.316;10.530;2022-10-16T08:55:42;17.60;99.90
16479;DHT22;8350;52.316;10.530;2022-10-16T08:58:12;17.50;99.90
16479;DHT22;8350;52.316;10.530;2022-10-16T09:00:41;17.40;99.90
16479;DHT22;8350;52.316;10.530;2022-10-16T09:03:17;17.40;99.90
16479;DHT22;8350;52.316;10.530;2022-10-16T09:05:54;17.40;99.90
16479;DHT22;8350;52.316;10.530;2022-10-16T09:08:31;17.30;99.90
16479;DHT22;8350;52.316;10.530;2022-10-16T09:11:05;17.50;99.90
16479;DHT22;8350;52.316;10.530;2022-10-16T09:13:39;17.70;99.90
16479;DHT22;8350;52.316;10.530;2022-10-16T09:16:16;17.80;99.90
16479;DHT22;8350;52.316;10.530;2022-10-16T09:18:54;17.90;99.90
16479;DHT22;8350;52.316;10.530;2022-10-16T09:21:26;18.00;99.90
16479;DHT22;8350;52.316;10.530;2022-10-16T09:23:54;18.10;99.90
16479;DHT22;8350;52.316;10.530;2022-10-16T09:26:23;18.10;99.90
16479;DHT22;8350;52.316;10.530;2022-10-16T09:28:52;18.20;99.90
16479;DHT22;8350;52.316;10.530;2022-10-16T09:31:21;18.00;99.90
16479;DHT22;8350;52.316;10.530;2022-10-16T09:33:53;17.90;99.90
16479;DHT22;8350;52.316;10.530;2022-10-16T09:36:22;17.90;99.90
16479;DHT22;8350;52.316;10.530;2022-10-16T09:39:03;17.80;99.90
16479;DHT22;8350;52.316;10.530;2022-10-16T09:41:33;17.80;99.90
16479;DHT22;8350;52.316;10.530;2022-10-16T09:44:02;17.80;99.90
16479;DHT22;8350;52.316;10.530;2022-10-16T09:46:31;17.70;99.90
16479;DHT22;8350;52.316;10.530;2022-10-16T09:49:04;17.70;99.90
16479;DHT22;8350;52.316;10.530;2022-10-16T09:51:33;17.70;99.90
16479;DHT22;8350;52.316;10.530;2022-10-16T09:54:11;17.70;99.90
16479;DHT22;8350;52.316;10.530;2022-10-16T09:56:39;17.70;99.90
16479;DHT22;8350;52.316;10.530;2022-10-16T09:59:11;17.80;99.90
16479;DHT22;8350;52.316;10.530;2022-10-16T10:01:40;17.90;99.90
16479;DHT22;8350;52.316;10.530;2022-10-16T10:04:10;17.90;99.90
16479;DHT22;8350;52.316;10.530;2022-10-16T10:06:41;17.80;99.90
16479;DHT22;8350;52.316;10.530;2022-10-16T10:09:19;17.70;99.90
16479;DHT22;8350;52.316;10.530;2022-10-16T10:11:52;17.60;99.90
16479;DHT22;8350;52.316;10.530;2022-10-16T10:14:28;17.60;99.90
16479;DHT22;8350;52.316;10.530;2022-10-16T10:17:17;17.60;99.90
16479;DHT22;8350;52.316;10.530;2022-10-16T10:19:50;17.60;99.90
16479;DHT22;8350;52.316;10.530;2022-10-16T10:25:36;18.00;99.90
16479;DHT22;8350;52.316;10.530;2022-10-16T10:28:21;18.40;99.90
16479;DHT22;8350;52.316;10.530;2022-10-16T10:30:58;18.70;96.70
16479;DHT22;8350;52.316;10.530;2022-10-16T10:33:33;19.10;67.40
16479;DHT22;8350;52.316;10.530;2022-10-16T10:36:12;19.30;51.00
16479;DHT22;8350;52.316;10.530;2022-10-16T10:38:47;19.40;39.70
16479;DHT22;8350;52.316;10.530;2022-10-16T10:41:32;19.40;48.00
16479;DHT22;8350;52.316;10.530;2022-10-16T10:44:10;19.40;29.30
16479;DHT22;8350;52.316;10.530;2022-10-16T10:46:42;19.30;1.00
16479;DHT22;8350;52.316;10.530;2022-10-16T10:49:39;19.20;1.00
16479;DHT22;8350;52.316;10.530;2022-10-16T10:52:31;19.20;1.00
16479;DHT22;8350;52.316;10.530;2022-10-16T10:55:10;19.30;1.00
16479;DHT22;8350;52.316;10.530;2022-10-16T10:57:45;19.20;1.00
16479;DHT22;8350;52.316;10.530;2022-10-16T11:00:21;19.50;1.00
16479;DHT22;8350;52.316;10.530;2022-10-16T11:02:55;19.80;1.00
16479;DHT22;8350;52.316;10.530;2022-10-16T11:05:36;20.20;1.00
16479;DHT22;8350;52.316;10.530;2022-10-16T11:08:10;20.20;1.00
16479;DHT22;8350;52.316;10.530;2022-10-16T11:10:46;20.10;1.00
16479;DHT22;8350;52.316;10.530;2022-10-16T11:13:26;19.80;1.00
16479;DHT22;8350;52.316;10.530;2022-10-16T11:15:58;19.50;1.00
16479;DHT22;8350;52.316;10.530;2022-10-16T11:18:38;19.20;1.00
16479;DHT22;8350;52.316;10.530;2022-10-16T11:21:09;19.30;1.00
16479;DHT22;8350;52.316;10.530;2022-10-16T11:23:44;19.40;1.00
16479;DHT22;8350;52.316;10.530;2022-10-16T11:26:17;19.50;1.00
16479;DHT22;8350;52.316;10.530;2022-10-16T11:28:49;19.40;1.00
16479;DHT22;8350;52.316;10.530;2022-10-16T11:31:20;19.60;1.00
16479;DHT22;8350;52.316;10.530;2022-10-16T11:33:54;19.70;1.00
16479;DHT22;8350;52.316;10.530;2022-10-16T11:36:27;20.00;1.00
16479;DHT22;8350;52.316;10.530;2022-10-16T11:39:02;20.00;1.00
16479;DHT22;8350;52.316;10.530;2022-10-16T11:41:34;20.20;1.00
16479;DHT22;8350;52.316;10.530;2022-10-16T11:44:27;20.30;1.00
16479;DHT22;8350;52.316;10.530;2022-10-16T11:47:08;20.50;1.00
16479;DHT22;8350;52.316;10.530;2022-10-16T11:49:40;20.80;1.00
16479;DHT22;8350;52.316;10.530;2022-10-16T11:52:13;20.90;1.00
16479;DHT22;8350;52.316;10.530;2022-10-16T11:54:49;21.10;1.00
16479;DHT22;8350;52.316;10.530;2022-10-16T11:57:19;21.20;99.90
16479;DHT22;8350;52.316;10.530;2022-10-16T11:59:51;21.30;99.90
16479;DHT22;8350;52.316;10.530;2022-10-16T12:02:34;21.20;99.90
16479;DHT22;8350;52.316;10.530;2022-10-16T12:05:12;21.20;99.90
16479;DHT22;8350;52.316;10.530;2022-10-16T12:07:49;21.30;99.90
16479;DHT22;8350;52.316;10.530;2022-10-16T12:10:24;21.40;99.90
16479;DHT22;8350;52.316;10.530;2022-10-16T12:12:52;21.20;74.40
16479;DHT22;8350;52.316;10.530;2022-10-16T12:15:22;21.30;99.90
16479;DHT22;8350;52.316;10.530;2022-10-16T12:17:51;21.50;99.90
16479;DHT22;8350;52.316;10.530;2022-10-16T12:20:25;21.50;6.70
16479;DHT22;8350;52.316;10.530;2022-10-16T12:22:54;21.40;1.00
16479;DHT22;8350;52.316;10.530;2022-10-16T12:25:26;21.30;1.00
16479;DHT22;8350;52.316;10.530;2022-10-16T12:27:59;21.30;1.00
16479;DHT22;8350;52.316;10.530;2022-10-16T12:30:29;21.30;1.00
16479;DHT22;8350;52.316;10.530;2022-10-16T12:32:58;21.20;1.00
16479;DHT22;8350;52.316;10.530;2022-10-16T12:35:28;21.10;1.00
16479;DHT22;8350;52.316;10.530;2022-10-16T12:38:06;21.10;99.90
16479;DHT22;8350;52.316;10.530;2022-10-16T12:40:37;21.20;99.90
16479;DHT22;8350;52.316;10.530;2022-10-16T12:43:26;21.30;99.90
16479;DHT22;8350;52.316;10.530;2022-10-16T12:46:02;21.20;99.90
16479;DHT22;8350;52.316;10.530;2022-10-16T12:48:29;21.10;99.90
16479;DHT22;8350;52.316;10.530;2022-10-16T12:50:57;21.10;99.90
16479;DHT22;8350;52.316;10.530;2022-10-16T12:53:25;21.00;99.90
16479;DHT22;8350;52.316;10.530;2022-10-16T12:56:04;21.10;99.90
16479;DHT22;8350;52.316;10.530;2022-10-16T12:58:51;21.10;99.90
16479;DHT22;8350;52.316;10.530;2022-10-16T13:04:42;21.20;93.90
16479;DHT22;8350;52.316;10.530;2022-10-16T13:07:28;21.30;36.80
16479;DHT22;8350;52.316;10.530;2022-10-16T13:10:05;21.40;99.90
16479;DHT22;8350;52.316;10.530;2022-10-16T13:12:54;21.60;1.00
16479;DHT22;8350;52.316;10.530;2022-10-16T13:15:47;21.50;99.90
16479;DHT22;8350;52.316;10.530;2022-10-16T13:18:22;21.60;99.90
16479;DHT22;8350;52.316;10.530;2022-10-16T13:21:00;21.70;1.00
16479;DHT22;8350;52.316;10.530;2022-10-16T13:23:34;21.60;99.90
16479;DHT22;8350;52.316;10.530;2022-10-16T13:26:13;21.40;99.90
16479;DHT22;8350;52.316;10.530;2022-10-16T13:28:43;21.20;1.00
16479;DHT22;8350;52.316;10.530;2022-10-16T13:31:15;21.20;1.00
16479;DHT22;8350;52.316;10.530;2022-10-16T13:33:46;21.10;99.90
16479;DHT22;8350;52.316;10.530;2022-10-16T13:36:20;21.10;99.90
16479;DHT22;8350;52.316;10.530;2022-10-16T13:38:48;21.20;99.90
16479;DHT22;8350;52.316;10.530;2022-10-16T13:41:17;21.20;99.90
16479;DHT22;8350;52.316;10.530;2022-10-16T13:43:49;21.30;99.90
16479;DHT22;8350;52.316;10.530;2022-10-16T13:46:19;21.20;57.70
16479;DHT22;8350;52.316;10.530;2022-10-16T13:48:56;21.20;99.90
16479;DHT22;8350;52.316;10.530;2022-10-16T13:51:24;21.20;99.90
16479;DHT22;8350;52.316;10.530;2022-10-16T13:53:51;21.10;99.90
16479;DHT22;8350;52.316;10.530;2022-10-16T13:56:20;21.20;99.90
16479;DHT22;8350;52.316;10.530;2022-10-16T13:58:58;21.20;99.90
16479;DHT22;8350;52.316;10.530;2022-10-16T14:01:27;21.30;99.90
16479;DHT22;8350;52.316;10.530;2022-10-16T14:04:01;21.20;99.90
16479;DHT22;8350;52.316;10.530;2022-10-16T14:06:29;21.20;99.90
16479;DHT22;8350;52.316;10.530;2022-10-16T14:09:04;21.20;99.90
16479;DHT22;8350;52.316;10.530;2022-10-16T14:11:32;21.30;99.90
16479;DHT22;8350;52.316;10.530;2022-10-16T14:14:02;21.20;99.90
16479;DHT22;8350;52.316;10.530;2022-10-16T14:16:30;21.10;99.90
16479;DHT22;8350;52.316;10.530;2022-10-16T14:19:00;21.00;99.90
16479;DHT22;8350;52.316;10.530;2022-10-16T14:21:28;21.00;99.90
16479;DHT22;8350;52.316;10.530;2022-10-16T14:23:56;20.90;99.90
16479;DHT22;8350;52.316;10.530;2022-10-16T14:26:26;20.90;1.00
16479;DHT22;8350;52.316;10.530;2022-10-16T14:29:11;20.80;99.90
16479;DHT22;8350;52.316;10.530;2022-10-16T14:31:38;20.80;99.90
16479;DHT22;8350;52.316;10.530;2022-10-16T14:34:24;20.70;99.90
16479;DHT22;8350;52.316;10.530;2022-10-16T14:36:53;20.40;99.90
16479;DHT22;8350;52.316;10.530;2022-10-16T14:39:22;20.20;99.90
16479;DHT22;8350;52.316;10.530;2022-10-16T14:41:51;19.90;1.00
16479;DHT22;8350;52.316;10.530;2022-10-16T14:44:22;19.80;1.00
16479;DHT22;8350;52.316;10.530;2022-10-16T14:46:53;19.70;1.00
16479;DHT22;8350;52.316;10.530;2022-10-16T14:49:20;19.60;59.90
16479;DHT22;8350;52.316;10.530;2022-10-16T14:51:48;19.60;99.90
16479;DHT22;8350;52.316;10.530;2022-10-16T14:54:17;19.40;99.90
16479;DHT22;8350;52.316;10.530;2022-10-16T14:56:49;19.30;99.90
16479;DHT22;8350;52.316;10.530;2022-10-16T14:59:22;19.20;1.00
16479;DHT22;8350;52.316;10.530;2022-10-16T15:01:51;19.20;1.00
16479;DHT22;8350;52.316;10.530;2022-10-16T15:04:19;19.20;1.00
16479;DHT22;8350;52.316;10.530;2022-10-16T15:06:46;19.20;1.00
16479;DHT22;8350;52.316;10.530;2022-10-16T15:09:13;19.10;1.00
16479;DHT22;8350;52.316;10.530;2022-10-16T15:11:41;19.10;1.00
16479;DHT22;8350;52.316;10.530;2022-10-16T15:14:11;19.10;1.00
16479;DHT22;8350;52.316;10.530;2022-10-16T15:16:40;19.20;1.00
16479;DHT22;8350;52.316;10.530;2022-10-16T15:19:07;19.00;1.00
16479;DHT22;8350;52.316;10.530;2022-10-16T15:21:34;19.00;1.00
16479;DHT22;8350;52.316;10.530;2022-10-16T15:24:01;19.00;1.00
16479;DHT22;8350;52.316;10.530;2022-10-16T15:26:29;18.80;1.00
16479;DHT22;8350;52.316;10.530;2022-10-16T15:28:56;18.80;1.00
16479;DHT22;8350;52.316;10.530;2022-10-16T15:31:23;18.90;1.00
16479;DHT22;8350;52.316;10.530;2022-10-16T15:33:53;18.80;1.00
16479;DHT22;8350;52.316;10.530;2022-10-16T15:36:27;18.60;1.00
16479;DHT22;8350;52.316;10.530;2022-10-16T15:38:54;18.60;1.00
16479;DHT22;8350;52.316;10.530;2022-10-16T15:41:22;18.50;1.00
16479;DHT22;8350;52.316;10.530;2022-10-16T15:43:49;18.40;1.00
16479;DHT22;8350;52.316;10.530;2022-10-16T15:46:19;18.40;1.00
16479;DHT22;8350;52.316;10.530;2022-10-16T15:48:47;18.50;1.00
16479;DHT22;8350;52.316;10.530;2022-10-16T15:51:16;18.40;1.00
16479;DHT22;8350;52.316;10.530;2022-10-16T15:53:44;18.30;1.00
16479;DHT22;8350;52.316;10.530;2022-10-16T15:56:12;18.20;1.00
16479;DHT22;8350;52.316;10.530;2022-10-16T15:58:40;18.30;1.00
16479;DHT22;8350;52.316;10.530;2022-10-16T16:01:08;18.20;1.00